sensor_id;sensor_type;location;lat;lon;timestamp;P1;durP1;ratioP1;P2;durP2;ratioP2
8327;SDS011;4201;48.754;8.864;2023-04-07T00:01:08;15.80;;;12.77;;
8327;SDS011;4201;48.754;8.864;2023-04-07T00:03:34;17.77;;;13.80;;
8327;SDS011;4201;48.754;8.864;2023-04-07T00:06:02;18.67;;;12.50;;
8327;SDS011;4201;48.754;8.864;2023-04-07T00:08:28;19.00;;;13.50;;
8327;SDS011;4201;48.754;8.864;2023-04-07T00:10:55;18.40;;;13.40;;
8327;SDS011;4201;48.754;8.864;2023-04-07T00:13:22;19.00;;;12.80;;
8327;SDS011;4201;48.754;8.864;2023-04-07T00:15:50;16.90;;;12.40;;
8327;SDS011;4201;48.754;8.864;2023-04-07T00:18:16;18.47;;;13.23;;
8327;SDS011;4201;48.754;8.864;2023-04-07T00:20:42;15.70;;;11.50;;
8327;SDS011;4201;48.754;8.864;2023-04-07T00:23:08;14.20;;;11.50;;
8327;SDS011;4201;48.754;8.864;2023-04-07T00:25:35;17.37;;;12.77;;
8327;SDS011;4201;48.754;8.864;2023-04-07T00:28:01;17.93;;;12.40;;
8327;SDS011;4201;48.754;8.864;2023-04-07T00:30:27;16.43;;;12.30;;
8327;SDS011;4201;48.754;8.864;2023-04-07T00:32:55;23.00;;;12.87;;
8327;SDS011;4201;48.754;8.864;2023-04-07T00:35:21;23.23;;;12.70;;
8327;SDS011;4201;48.754;8.864;2023-04-07T00:37:47;17.73;;;11.93;;
8327;SDS011;4201;48.754;8.864;2023-04-07T00:40:14;21.40;;;12.00;;
8327;SDS011;4201;48.754;8.864;2023-04-07T00:42:40;17.07;;;12.63;;
8327;SDS011;4201;48.754;8.864;2023-04-07T00:45:07;17.57;;;11.50;;
8327;SDS011;4201;48.754;8.864;2023-04-07T00:47:34;17.57;;;12.63;;
8327;SDS011;4201;48.754;8.864;2023-04-07T00:50:03;17.03;;;12.37;;
8327;SDS011;4201;48.754;8.864;2023-04-07T00:52:30;18.83;;;13.33;;
8327;SDS011;4201;48.754;8.864;2023-04-07T00:54:58;17.43;;;12.67;;
8327;SDS011;4201;48.754;8.864;2023-04-07T00:57:24;18.07;;;13.40;;
8327;SDS011;4201;48.754;8.864;2023-04-07T00:59:51;16.47;;;13.07;;
8327;SDS011;4201;48.754;8.864;2023-04-07T01:02:18;18.27;;;13.93;;
8327;SDS011;4201;48.754;8.864;2023-04-07T01:04:47;17.03;;;11.97;;
8327;SDS011;4201;48.754;8.864;2023-04-07T01:07:22;19.83;;;13.10;;
8327;SDS011;4201;48.754;8.864;2023-04-07T01:09:51;18.60;;;12.93;;
8327;SDS011;4201;48.754;8.864;2023-04-07T01:12:21;14.73;;;12.20;;
8327;SDS011;4201;48.754;8.864;2023-04-07T01:14:49;16.87;;;12.73;;
8327;SDS011;4201;48.754;8.864;2023-04-07T01:17:16;17.10;;;12.70;;
8327;SDS011;4201;48.754;8.864;2023-04-07T01:19:45;18.93;;;13.30;;
8327;SDS011;4201;48.754;8.864;2023-04-07T01:22:13;19.03;;;12.77;;
8327;SDS011;4201;48.754;8.864;2023-04-07T01:24:59;21.63;;;15.47;;
8327;SDS011;4201;48.754;8.864;2023-04-07T01:27:32;16.17;;;11.50;;
8327;SDS011;4201;48.754;8.864;2023-04-07T01:30:01;18.80;;;13.07;;
8327;SDS011;4201;48.754;8.864;2023-04-07T01:32:28;19.70;;;12.67;;
8327;SDS011;4201;48.754;8.864;2023-04-07T01:34:55;21.10;;;13.73;;
8327;SDS011;4201;48.754;8.864;2023-04-07T01:37:22;18.37;;;13.80;;
8327;SDS011;4201;48.754;8.864;2023-04-07T01:39:50;18.20;;;12.63;;
8327;SDS011;4201;48.754;8.864;2023-04-07T01:42:16;17.83;;;13.27;;
8327;SDS011;4201;48.754;8.864;2023-04-07T01:44:43;20.00;;;14.20;;
8327;SDS011;4201;48.754;8.864;2023-04-07T01:47:12;17.10;;;13.40;;
8327;SDS011;4201;48.754;8.864;2023-04-07T01:49:39;19.20;;;12.60;;
8327;SDS011;4201;48.754;8.864;2023-04-07T01:52:06;18.20;;;13.30;;
8327;SDS011;4201;48.754;8.864;2023-04-07T01:54:32;18.97;;;14.47;;
8327;SDS011;4201;48.754;8.864;2023-04-07T01:56:59;17.53;;;12.10;;
8327;SDS011;4201;48.754;8.864;2023-04-07T01:59:26;17.33;;;12.30;;
8327;SDS011;4201;48.754;8.864;2023-04-07T02:01:52;19.73;;;13.67;;
8327;SDS011;4201;48.754;8.864;2023-04-07T02:04:21;18.50;;;13.37;;
8327;SDS011;4201;48.754;8.864;2023-04-07T02:06:51;19.50;;;14.30;;
8327;SDS011;4201;48.754;8.864;2023-04-07T02:09:18;18.77;;;14.70;;
8327;SDS011;4201;48.754;8.864;2023-04-07T02:11:45;20.07;;;13.00;;
8327;SDS011;4201;48.754;8.864;2023-04-07T02:14:11;21.20;;;14.90;;
8327;SDS011;4201;48.754;8.864;2023-04-07T02:16:38;20.63;;;13.73;;
8327;SDS011;4201;48.754;8.864;2023-04-07T02:19:05;19.53;;;13.37;;
8327;SDS011;4201;48.754;8.864;2023-04-07T02:21:33;19.50;;;15.10;;
8327;SDS011;4201;48.754;8.864;2023-04-07T02:24:00;18.23;;;12.97;;
8327;SDS011;4201;48.754;8.864;2023-04-07T02:26:26;19.43;;;13.80;;
8327;SDS011;4201;48.754;8.864;2023-04-07T02:28:53;22.93;;;14.73;;
8327;SDS011;4201;48.754;8.864;2023-04-07T02:31:19;18.23;;;14.07;;
8327;SDS011;4201;48.754;8.864;2023-04-07T02:33:45;18.70;;;13.17;;
8327;SDS011;4201;48.754;8.864;2023-04-07T02:36:12;19.90;;;13.60;;
8327;SDS011;4201;48.754;8.864;2023-04-07T02:38:39;24.67;;;15.30;;
8327;SDS011;4201;48.754;8.864;2023-04-07T02:41:05;21.67;;;14.33;;
8327;SDS011;4201;48.754;8.864;2023-04-07T02:43:32;20.43;;;14.17;;
8327;SDS011;4201;48.754;8.864;2023-04-07T02:45:58;22.13;;;15.47;;
8327;SDS011;4201;48.754;8.864;2023-04-07T02:48:24;17.33;;;14.10;;
8327;SDS011;4201;48.754;8.864;2023-04-07T02:50:50;24.27;;;14.67;;
8327;SDS011;4201;48.754;8.864;2023-04-07T02:53:17;21.47;;;14.03;;
8327;SDS011;4201;48.754;8.864;2023-04-07T02:55:44;21.50;;;14.53;;
8327;SDS011;4201;48.754;8.864;2023-04-07T02:58:10;18.33;;;13.13;;
8327;SDS011;4201;48.754;8.864;2023-04-07T03:00:37;19.70;;;14.13;;
8327;SDS011;4201;48.754;8.864;2023-04-07T03:03:03;19.67;;;14.50;;
8327;SDS011;4201;48.754;8.864;2023-04-07T03:05:29;22.90;;;14.00;;
8327;SDS011;4201;48.754;8.864;2023-04-07T03:07:56;19.60;;;14.50;;
8327;SDS011;4201;48.754;8.864;2023-04-07T03:10:22;18.00;;;14.33;;
8327;SDS011;4201;48.754;8.864;2023-04-07T03:12:49;18.27;;;13.43;;
8327;SDS011;4201;48.754;8.864;2023-04-07T03:15:16;18.37;;;13.80;;
8327;SDS011;4201;48.754;8.864;2023-04-07T03:17:42;17.60;;;14.37;;
8327;SDS011;4201;48.754;8.864;2023-04-07T03:20:08;22.53;;;14.10;;
8327;SDS011;4201;48.754;8.864;2023-04-07T03:22:35;21.60;;;15.40;;
8327;SDS011;4201;48.754;8.864;2023-04-07T03:25:01;21.80;;;14.67;;
8327;SDS011;4201;48.754;8.864;2023-04-07T03:27:27;24.20;;;16.50;;
8327;SDS011;4201;48.754;8.864;2023-04-07T03:29:55;25.70;;;16.13;;
8327;SDS011;4201;48.754;8.864;2023-04-07T03:32:21;20.77;;;13.80;;
8327;SDS011;4201;48.754;8.864;2023-04-07T03:34:47;21.30;;;14.17;;
8327;SDS011;4201;48.754;8.864;2023-04-07T03:37:13;22.67;;;16.33;;
8327;SDS011;4201;48.754;8.864;2023-04-07T03:39:40;22.20;;;15.60;;
8327;SDS011;4201;48.754;8.864;2023-04-07T03:42:06;22.10;;;15.53;;
8327;SDS011;4201;48.754;8.864;2023-04-07T03:44:32;21.93;;;16.27;;
8327;SDS011;4201;48.754;8.864;2023-04-07T03:47:00;20.33;;;14.43;;
8327;SDS011;4201;48.754;8.864;2023-04-07T03:49:26;20.73;;;15.40;;
8327;SDS011;4201;48.754;8.864;2023-04-07T03:51:53;19.33;;;14.17;;
8327;SDS011;4201;48.754;8.864;2023-04-07T03:54:19;23.60;;;15.00;;
8327;SDS011;4201;48.754;8.864;2023-04-07T03:56:45;23.93;;;15.90;;
8327;SDS011;4201;48.754;8.864;2023-04-07T03:59:12;23.00;;;15.47;;
8327;SDS011;4201;48.754;8.864;2023-04-07T04:01:38;26.10;;;16.47;;
8327;SDS011;4201;48.754;8.864;2023-04-07T04:04:05;22.30;;;15.17;;
8327;SDS011;4201;48.754;8.864;2023-04-07T04:06:32;23.53;;;15.53;;
8327;SDS011;4201;48.754;8.864;2023-04-07T04:08:58;19.77;;;14.27;;
8327;SDS011;4201;48.754;8.864;2023-04-07T04:11:24;31.23;;;15.50;;
8327;SDS011;4201;48.754;8.864;2023-04-07T04:13:51;20.60;;;14.57;;
8327;SDS011;4201;48.754;8.864;2023-04-07T04:16:17;23.23;;;15.70;;
8327;SDS011;4201;48.754;8.864;2023-04-07T04:18:43;18.77;;;14.40;;
8327;SDS011;4201;48.754;8.864;2023-04-07T04:21:11;20.10;;;14.37;;
8327;SDS011;4201;48.754;8.864;2023-04-07T04:23:37;24.97;;;15.80;;
8327;SDS011;4201;48.754;8.864;2023-04-07T04:26:03;18.97;;;14.60;;
8327;SDS011;4201;48.754;8.864;2023-04-07T04:28:30;21.73;;;14.90;;
8327;SDS011;4201;48.754;8.864;2023-04-07T04:30:56;20.43;;;14.50;;
8327;SDS011;4201;48.754;8.864;2023-04-07T04:33:22;23.90;;;15.77;;
8327;SDS011;4201;48.754;8.864;2023-04-07T04:35:49;22.80;;;14.90;;
8327;SDS011;4201;48.754;8.864;2023-04-07T04:38:17;21.20;;;14.70;;
8327;SDS011;4201;48.754;8.864;2023-04-07T04:40:44;23.00;;;14.50;;
8327;SDS011;4201;48.754;8.864;2023-04-07T04:43:10;19.17;;;13.87;;
8327;SDS011;4201;48.754;8.864;2023-04-07T04:45:36;20.23;;;15.90;;
8327;SDS011;4201;48.754;8.864;2023-04-07T04:48:03;18.50;;;12.83;;
8327;SDS011;4201;48.754;8.864;2023-04-07T04:50:29;21.63;;;14.70;;
8327;SDS011;4201;48.754;8.864;2023-04-07T04:52:55;19.87;;;13.70;;
8327;SDS011;4201;48.754;8.864;2023-04-07T04:55:23;16.93;;;13.33;;
8327;SDS011;4201;48.754;8.864;2023-04-07T04:57:49;18.10;;;13.20;;
8327;SDS011;4201;48.754;8.864;2023-04-07T05:00:15;19.50;;;14.27;;
8327;SDS011;4201;48.754;8.864;2023-04-07T05:02:42;21.63;;;14.37;;
8327;SDS011;4201;48.754;8.864;2023-04-07T05:05:08;21.83;;;15.80;;
8327;SDS011;4201;48.754;8.864;2023-04-07T05:07:34;21.23;;;14.80;;
8327;SDS011;4201;48.754;8.864;2023-04-07T05:10:01;19.90;;;14.03;;
8327;SDS011;4201;48.754;8.864;2023-04-07T05:12:29;20.17;;;14.93;;
8327;SDS011;4201;48.754;8.864;2023-04-07T05:14:55;25.20;;;15.90;;
8327;SDS011;4201;48.754;8.864;2023-04-07T05:17:21;19.20;;;14.20;;
8327;SDS011;4201;48.754;8.864;2023-04-07T05:19:47;19.97;;;15.10;;
8327;SDS011;4201;48.754;8.864;2023-04-07T05:22:13;21.10;;;15.17;;
8327;SDS011;4201;48.754;8.864;2023-04-07T05:24:40;22.70;;;14.20;;
8327;SDS011;4201;48.754;8.864;2023-04-07T05:27:06;19.37;;;14.53;;
8327;SDS011;4201;48.754;8.864;2023-04-07T05:29:34;20.30;;;14.30;;
8327;SDS011;4201;48.754;8.864;2023-04-07T05:32:00;19.60;;;13.87;;
8327;SDS011;4201;48.754;8.864;2023-04-07T05:34:26;19.60;;;13.27;;
8327;SDS011;4201;48.754;8.864;2023-04-07T05:36:53;20.73;;;14.70;;
8327;SDS011;4201;48.754;8.864;2023-04-07T05:39:19;18.50;;;14.60;;
8327;SDS011;4201;48.754;8.864;2023-04-07T05:41:45;17.40;;;13.70;;
8327;SDS011;4201;48.754;8.864;2023-04-07T05:44:11;19.30;;;14.23;;
8327;SDS011;4201;48.754;8.864;2023-04-07T05:46:39;18.70;;;13.60;;
8327;SDS011;4201;48.754;8.864;2023-04-07T05:49:05;23.30;;;14.53;;
8327;SDS011;4201;48.754;8.864;2023-04-07T05:51:31;27.33;;;14.67;;
8327;SDS011;4201;48.754;8.864;2023-04-07T05:54:00;19.93;;;14.20;;
8327;SDS011;4201;48.754;8.864;2023-04-07T05:56:27;20.80;;;15.53;;
8327;SDS011;4201;48.754;8.864;2023-04-07T05:58:53;19.33;;;15.80;;
8327;SDS011;4201;48.754;8.864;2023-04-07T06:01:20;22.40;;;16.10;;
8327;SDS011;4201;48.754;8.864;2023-04-07T06:03:47;21.00;;;14.20;;
8327;SDS011;4201;48.754;8.864;2023-04-07T06:06:14;18.87;;;14.37;;
8327;SDS011;4201;48.754;8.864;2023-04-07T06:08:40;18.40;;;13.57;;
8327;SDS011;4201;48.754;8.864;2023-04-07T06:11:06;18.53;;;15.00;;
8327;SDS011;4201;48.754;8.864;2023-04-07T06:13:32;19.80;;;13.73;;
8327;SDS011;4201;48.754;8.864;2023-04-07T06:15:59;17.07;;;12.73;;
8327;SDS011;4201;48.754;8.864;2023-04-07T06:18:25;16.17;;;12.60;;
8327;SDS011;4201;48.754;8.864;2023-04-07T06:20:52;13.60;;;11.37;;
8327;SDS011;4201;48.754;8.864;2023-04-07T06:23:19;12.47;;;10.50;;
8327;SDS011;4201;48.754;8.864;2023-04-07T06:25:45;16.97;;;10.80;;
8327;SDS011;4201;48.754;8.864;2023-04-07T06:28:15;13.53;;;10.77;;
8327;SDS011;4201;48.754;8.864;2023-04-07T06:30:42;12.63;;;10.47;;
8327;SDS011;4201;48.754;8.864;2023-04-07T06:33:08;11.83;;;10.63;;
8327;SDS011;4201;48.754;8.864;2023-04-07T06:35:34;19.10;;;10.87;;
8327;SDS011;4201;48.754;8.864;2023-04-07T06:38:02;14.97;;;10.30;;
8327;SDS011;4201;48.754;8.864;2023-04-07T06:40:28;13.20;;;9.90;;
8327;SDS011;4201;48.754;8.864;2023-04-07T06:42:54;13.20;;;10.97;;
8327;SDS011;4201;48.754;8.864;2023-04-07T06:45:20;12.80;;;10.03;;
8327;SDS011;4201;48.754;8.864;2023-04-07T06:47:47;13.03;;;11.10;;
8327;SDS011;4201;48.754;8.864;2023-04-07T06:50:13;16.50;;;8.43;;
8327;SDS011;4201;48.754;8.864;2023-04-07T06:52:41;14.63;;;10.37;;
8327;SDS011;4201;48.754;8.864;2023-04-07T06:55:09;13.83;;;9.43;;
8327;SDS011;4201;48.754;8.864;2023-04-07T06:57:35;12.57;;;10.67;;
8327;SDS011;4201;48.754;8.864;2023-04-07T07:00:02;10.07;;;8.70;;
8327;SDS011;4201;48.754;8.864;2023-04-07T07:02:31;9.50;;;8.23;;
8327;SDS011;4201;48.754;8.864;2023-04-07T07:04:58;9.37;;;8.07;;
8327;SDS011;4201;48.754;8.864;2023-04-07T07:07:24;13.00;;;9.33;;
8327;SDS011;4201;48.754;8.864;2023-04-07T07:09:50;11.40;;;8.70;;
8327;SDS011;4201;48.754;8.864;2023-04-07T07:12:18;11.73;;;9.43;;
8327;SDS011;4201;48.754;8.864;2023-04-07T07:14:44;10.43;;;8.70;;
8327;SDS011;4201;48.754;8.864;2023-04-07T07:17:10;11.33;;;8.77;;
8327;SDS011;4201;48.754;8.864;2023-04-07T07:19:37;11.00;;;8.50;;
8327;SDS011;4201;48.754;8.864;2023-04-07T07:22:03;8.30;;;7.40;;
8327;SDS011;4201;48.754;8.864;2023-04-07T07:24:29;10.17;;;8.27;;
8327;SDS011;4201;48.754;8.864;2023-04-07T07:26:57;9.20;;;8.20;;
8327;SDS011;4201;48.754;8.864;2023-04-07T07:29:25;14.80;;;11.80;;
8327;SDS011;4201;48.754;8.864;2023-04-07T07:31:51;14.37;;;8.10;;
8327;SDS011;4201;48.754;8.864;2023-04-07T07:34:18;12.17;;;7.97;;
8327;SDS011;4201;48.754;8.864;2023-04-07T07:36:44;13.53;;;9.00;;
8327;SDS011;4201;48.754;8.864;2023-04-07T07:39:10;9.97;;;8.20;;
8327;SDS011;4201;48.754;8.864;2023-04-07T07:41:38;13.27;;;8.63;;
8327;SDS011;4201;48.754;8.864;2023-04-07T07:44:04;9.63;;;7.53;;
8327;SDS011;4201;48.754;8.864;2023-04-07T07:46:32;11.70;;;7.20;;
8327;SDS011;4201;48.754;8.864;2023-04-07T07:48:58;15.60;;;6.90;;
8327;SDS011;4201;48.754;8.864;2023-04-07T07:51:24;10.20;;;7.27;;
8327;SDS011;4201;48.754;8.864;2023-04-07T07:53:52;11.37;;;7.43;;
8327;SDS011;4201;48.754;8.864;2023-04-07T07:56:18;11.57;;;8.50;;
8327;SDS011;4201;48.754;8.864;2023-04-07T07:58:44;6.90;;;5.60;;
8327;SDS011;4201;48.754;8.864;2023-04-07T08:01:11;8.23;;;5.60;;
8327;SDS011;4201;48.754;8.864;2023-04-07T08:03:39;12.13;;;6.57;;
8327;SDS011;4201;48.754;8.864;2023-04-07T08:06:05;12.40;;;6.53;;
8327;SDS011;4201;48.754;8.864;2023-04-07T08:08:33;9.00;;;6.10;;
8327;SDS011;4201;48.754;8.864;2023-04-07T08:10:59;8.47;;;5.40;;
8327;SDS011;4201;48.754;8.864;2023-04-07T08:13:26;8.20;;;6.20;;
8327;SDS011;4201;48.754;8.864;2023-04-07T08:15:52;9.70;;;7.03;;
8327;SDS011;4201;48.754;8.864;2023-04-07T08:18:18;8.40;;;5.37;;
8327;SDS011;4201;48.754;8.864;2023-04-07T08:20:46;9.77;;;6.53;;
8327;SDS011;4201;48.754;8.864;2023-04-07T08:23:12;8.33;;;6.73;;
8327;SDS011;4201;48.754;8.864;2023-04-07T08:25:38;10.00;;;6.37;;
8327;SDS011;4201;48.754;8.864;2023-04-07T08:28:05;8.67;;;6.20;;
8327;SDS011;4201;48.754;8.864;2023-04-07T08:30:31;11.03;;;6.03;;
8327;SDS011;4201;48.754;8.864;2023-04-07T08:32:57;14.47;;;5.97;;
8327;SDS011;4201;48.754;8.864;2023-04-07T08:35:23;10.80;;;7.60;;
8327;SDS011;4201;48.754;8.864;2023-04-07T08:37:51;9.43;;;5.73;;
8327;SDS011;4201;48.754;8.864;2023-04-07T08:40:17;6.60;;;4.47;;
8327;SDS011;4201;48.754;8.864;2023-04-07T08:42:45;10.10;;;6.53;;
8327;SDS011;4201;48.754;8.864;2023-04-07T08:45:12;9.63;;;5.90;;
8327;SDS011;4201;48.754;8.864;2023-04-07T08:47:39;7.63;;;5.00;;
8327;SDS011;4201;48.754;8.864;2023-04-07T08:50:06;9.37;;;5.17;;
8327;SDS011;4201;48.754;8.864;2023-04-07T08:52:33;12.17;;;4.90;;
8327;SDS011;4201;48.754;8.864;2023-04-07T08:55:02;8.40;;;5.20;;
8327;SDS011;4201;48.754;8.864;2023-04-07T08:57:31;12.63;;;5.13;;
8327;SDS011;4201;48.754;8.864;2023-04-07T08:59:58;6.40;;;4.50;;
8327;SDS011;4201;48.754;8.864;2023-04-07T09:02:28;8.63;;;5.53;;
8327;SDS011;4201;48.754;8.864;2023-04-07T09:04:54;12.57;;;4.77;;
8327;SDS011;4201;48.754;8.864;2023-04-07T09:07:21;9.20;;;3.83;;
8327;SDS011;4201;48.754;8.864;2023-04-07T09:09:47;8.23;;;3.50;;
8327;SDS011;4201;48.754;8.864;2023-04-07T09:12:15;8.03;;;3.40;;
8327;SDS011;4201;48.754;8.864;2023-04-07T09:14:41;7.93;;;4.10;;
8327;SDS011;4201;48.754;8.864;2023-04-07T09:17:07;7.93;;;3.90;;
8327;SDS011;4201;48.754;8.864;2023-04-07T09:19:33;7.37;;;4.23;;
8327;SDS011;4201;48.754;8.864;2023-04-07T09:22:00;7.90;;;3.97;;
8327;SDS011;4201;48.754;8.864;2023-04-07T09:24:26;7.13;;;4.40;;
8327;SDS011;4201;48.754;8.864;2023-04-07T09:29:39;10.73;;;4.83;;
8327;SDS011;4201;48.754;8.864;2023-04-07T09:32:06;6.70;;;4.07;;
8327;SDS011;4201;48.754;8.864;2023-04-07T09:34:32;5.87;;;3.37;;
8327;SDS011;4201;48.754;8.864;2023-04-07T09:36:59;6.00;;;3.20;;
8327;SDS011;4201;48.754;8.864;2023-04-07T09:39:26;5.23;;;3.40;;
8327;SDS011;4201;48.754;8.864;2023-04-07T09:41:52;6.30;;;3.07;;
8327;SDS011;4201;48.754;8.864;2023-04-07T09:44:19;3.90;;;2.43;;
8327;SDS011;4201;48.754;8.864;2023-04-07T09:46:51;7.40;;;3.07;;
8327;SDS011;4201;48.754;8.864;2023-04-07T09:49:17;6.13;;;3.10;;
8327;SDS011;4201;48.754;8.864;2023-04-07T09:51:54;5.60;;;2.80;;
8327;SDS011;4201;48.754;8.864;2023-04-07T09:54:30;6.13;;;3.73;;
8327;SDS011;4201;48.754;8.864;2023-04-07T09:56:57;9.43;;;3.50;;
8327;SDS011;4201;48.754;8.864;2023-04-07T09:59:24;6.57;;;3.27;;
8327;SDS011;4201;48.754;8.864;2023-04-07T10:01:52;5.90;;;3.43;;
8327;SDS011;4201;48.754;8.864;2023-04-07T10:04:18;6.07;;;3.10;;
8327;SDS011;4201;48.754;8.864;2023-04-07T10:06:45;3.33;;;2.20;;
8327;SDS011;4201;48.754;8.864;2023-04-07T10:09:12;7.10;;;2.70;;
8327;SDS011;4201;48.754;8.864;2023-04-07T10:11:38;11.80;;;2.63;;
8327;SDS011;4201;48.754;8.864;2023-04-07T10:14:05;10.73;;;3.30;;
8327;SDS011;4201;48.754;8.864;2023-04-07T10:16:32;4.83;;;3.00;;
8327;SDS011;4201;48.754;8.864;2023-04-07T10:18:59;5.03;;;2.80;;
8327;SDS011;4201;48.754;8.864;2023-04-07T10:21:25;6.33;;;2.77;;
8327;SDS011;4201;48.754;8.864;2023-04-07T10:23:55;3.97;;;2.40;;
8327;SDS011;4201;48.754;8.864;2023-04-07T10:26:23;4.57;;;2.80;;
8327;SDS011;4201;48.754;8.864;2023-04-07T10:28:52;7.00;;;3.10;;
8327;SDS011;4201;48.754;8.864;2023-04-07T10:31:20;7.73;;;2.80;;
8327;SDS011;4201;48.754;8.864;2023-04-07T10:33:48;5.57;;;3.03;;
8327;SDS011;4201;48.754;8.864;2023-04-07T10:36:16;5.83;;;3.33;;
8327;SDS011;4201;48.754;8.864;2023-04-07T10:41:32;7.13;;;2.93;;
8327;SDS011;4201;48.754;8.864;2023-04-07T10:44:00;4.80;;;2.70;;
8327;SDS011;4201;48.754;8.864;2023-04-07T10:49:08;8.73;;;3.07;;
8327;SDS011;4201;48.754;8.864;2023-04-07T10:51:37;7.53;;;3.10;;
8327;SDS011;4201;48.754;8.864;2023-04-07T10:59:34;7.43;;;3.23;;
8327;SDS011;4201;48.754;8.864;2023-04-07T11:04:45;5.37;;;2.80;;
8327;SDS011;4201;48.754;8.864;2023-04-07T11:07:13;4.53;;;3.57;;
8327;SDS011;4201;48.754;8.864;2023-04-07T11:09:40;7.67;;;3.10;;
8327;SDS011;4201;48.754;8.864;2023-04-07T11:12:06;6.70;;;3.23;;
8327;SDS011;4201;48.754;8.864;2023-04-07T11:14:33;6.50;;;2.40;;
8327;SDS011;4201;48.754;8.864;2023-04-07T11:17:01;7.00;;;3.63;;
8327;SDS011;4201;48.754;8.864;2023-04-07T11:19:28;7.00;;;2.70;;
8327;SDS011;4201;48.754;8.864;2023-04-07T11:24:36;5.97;;;3.03;;
8327;SDS011;4201;48.754;8.864;2023-04-07T11:27:03;6.90;;;2.83;;
8327;SDS011;4201;48.754;8.864;2023-04-07T11:29:30;5.17;;;2.70;;
8327;SDS011;4201;48.754;8.864;2023-04-07T11:31:57;5.70;;;2.70;;
8327;SDS011;4201;48.754;8.864;2023-04-07T11:34:27;4.93;;;2.87;;
8327;SDS011;4201;48.754;8.864;2023-04-07T11:36:54;5.97;;;3.13;;
8327;SDS011;4201;48.754;8.864;2023-04-07T11:39:23;4.93;;;2.70;;
8327;SDS011;4201;48.754;8.864;2023-04-07T11:41:53;5.07;;;2.20;;
8327;SDS011;4201;48.754;8.864;2023-04-07T11:44:19;6.23;;;2.33;;
8327;SDS011;4201;48.754;8.864;2023-04-07T11:46:52;8.40;;;2.57;;
8327;SDS011;4201;48.754;8.864;2023-04-07T11:49:18;5.57;;;3.00;;
8327;SDS011;4201;48.754;8.864;2023-04-07T11:51:45;7.40;;;3.10;;
8327;SDS011;4201;48.754;8.864;2023-04-07T11:54:12;5.10;;;2.80;;
8327;SDS011;4201;48.754;8.864;2023-04-07T11:56:42;5.17;;;2.60;;
8327;SDS011;4201;48.754;8.864;2023-04-07T11:59:15;7.40;;;2.77;;
8327;SDS011;4201;48.754;8.864;2023-04-07T12:01:44;4.30;;;2.63;;
8327;SDS011;4201;48.754;8.864;2023-04-07T12:04:11;6.30;;;3.20;;
8327;SDS011;4201;48.754;8.864;2023-04-07T12:06:38;10.90;;;6.23;;
8327;SDS011;4201;48.754;8.864;2023-04-07T12:09:06;9.27;;;7.07;;
8327;SDS011;4201;48.754;8.864;2023-04-07T12:11:33;14.47;;;6.07;;
8327;SDS011;4201;48.754;8.864;2023-04-07T12:14:00;11.23;;;6.47;;
8327;SDS011;4201;48.754;8.864;2023-04-07T12:16:30;10.33;;;6.93;;
8327;SDS011;4201;48.754;8.864;2023-04-07T12:18:56;10.33;;;6.93;;
8327;SDS011;4201;48.754;8.864;2023-04-07T12:21:23;10.47;;;7.07;;
8327;SDS011;4201;48.754;8.864;2023-04-07T12:23:50;7.13;;;5.70;;
8327;SDS011;4201;48.754;8.864;2023-04-07T12:26:16;13.80;;;6.87;;
8327;SDS011;4201;48.754;8.864;2023-04-07T12:28:43;12.70;;;6.50;;
8327;SDS011;4201;48.754;8.864;2023-04-07T12:31:09;10.07;;;6.37;;
8327;SDS011;4201;48.754;8.864;2023-04-07T12:33:36;12.87;;;7.60;;
8327;SDS011;4201;48.754;8.864;2023-04-07T12:36:03;11.17;;;6.70;;
8327;SDS011;4201;48.754;8.864;2023-04-07T12:38:30;12.50;;;7.00;;
8327;SDS011;4201;48.754;8.864;2023-04-07T12:40:56;14.30;;;8.10;;
8327;SDS011;4201;48.754;8.864;2023-04-07T12:43:27;13.07;;;8.73;;
8327;SDS011;4201;48.754;8.864;2023-04-07T12:45:53;14.07;;;8.10;;
8327;SDS011;4201;48.754;8.864;2023-04-07T12:48:19;17.97;;;9.10;;
8327;SDS011;4201;48.754;8.864;2023-04-07T12:50:47;16.03;;;9.17;;
8327;SDS011;4201;48.754;8.864;2023-04-07T12:53:14;17.50;;;7.67;;
8327;SDS011;4201;48.754;8.864;2023-04-07T12:55:40;14.47;;;8.63;;
8327;SDS011;4201;48.754;8.864;2023-04-07T12:58:06;12.73;;;9.60;;
8327;SDS011;4201;48.754;8.864;2023-04-07T13:00:33;10.37;;;9.20;;
8327;SDS011;4201;48.754;8.864;2023-04-07T13:02:59;11.23;;;8.73;;
8327;SDS011;4201;48.754;8.864;2023-04-07T13:05:27;10.70;;;8.87;;
8327;SDS011;4201;48.754;8.864;2023-04-07T13:07:54;14.83;;;9.70;;
8327;SDS011;4201;48.754;8.864;2023-04-07T13:10:20;17.80;;;9.70;;
8327;SDS011;4201;48.754;8.864;2023-04-07T13:12:47;11.50;;;8.77;;
8327;SDS011;4201;48.754;8.864;2023-04-07T13:15:13;12.07;;;8.70;;
8327;SDS011;4201;48.754;8.864;2023-04-07T13:17:39;13.53;;;8.43;;
8327;SDS011;4201;48.754;8.864;2023-04-07T13:20:06;14.80;;;7.43;;
8327;SDS011;4201;48.754;8.864;2023-04-07T13:22:32;11.73;;;8.10;;
8327;SDS011;4201;48.754;8.864;2023-04-07T13:25:00;14.07;;;9.40;;
8327;SDS011;4201;48.754;8.864;2023-04-07T13:27:26;12.30;;;8.43;;
8327;SDS011;4201;48.754;8.864;2023-04-07T13:29:53;12.00;;;8.30;;
8327;SDS011;4201;48.754;8.864;2023-04-07T13:32:19;16.77;;;7.87;;
8327;SDS011;4201;48.754;8.864;2023-04-07T13:34:45;11.13;;;7.50;;
8327;SDS011;4201;48.754;8.864;2023-04-07T13:37:11;8.67;;;7.03;;
8327;SDS011;4201;48.754;8.864;2023-04-07T13:39:38;9.50;;;6.57;;
8327;SDS011;4201;48.754;8.864;2023-04-07T13:42:06;9.70;;;6.70;;
8327;SDS011;4201;48.754;8.864;2023-04-07T13:44:33;10.93;;;7.60;;
8327;SDS011;4201;48.754;8.864;2023-04-07T13:47:01;13.13;;;7.07;;
8327;SDS011;4201;48.754;8.864;2023-04-07T13:49:27;7.83;;;6.03;;
8327;SDS011;4201;48.754;8.864;2023-04-07T13:51:54;16.23;;;7.33;;
8327;SDS011;4201;48.754;8.864;2023-04-07T13:54:20;8.40;;;6.40;;
8327;SDS011;4201;48.754;8.864;2023-04-07T13:56:46;6.40;;;5.20;;
8327;SDS011;4201;48.754;8.864;2023-04-07T13:59:14;9.23;;;5.20;;
8327;SDS011;4201;48.754;8.864;2023-04-07T14:01:40;11.33;;;6.70;;
8327;SDS011;4201;48.754;8.864;2023-04-07T14:04:07;8.53;;;6.30;;
8327;SDS011;4201;48.754;8.864;2023-04-07T14:06:33;11.13;;;6.50;;
8327;SDS011;4201;48.754;8.864;2023-04-07T14:09:01;8.60;;;5.90;;
8327;SDS011;4201;48.754;8.864;2023-04-07T14:11:27;8.30;;;6.40;;
8327;SDS011;4201;48.754;8.864;2023-04-07T14:13:54;14.20;;;5.57;;
8327;SDS011;4201;48.754;8.864;2023-04-07T14:16:21;6.83;;;5.03;;
8327;SDS011;4201;48.754;8.864;2023-04-07T14:18:48;9.77;;;5.70;;
8327;SDS011;4201;48.754;8.864;2023-04-07T14:21:15;8.73;;;5.00;;
8327;SDS011;4201;48.754;8.864;2023-04-07T14:23:41;9.93;;;5.70;;
8327;SDS011;4201;48.754;8.864;2023-04-07T14:26:08;8.00;;;5.57;;
8327;SDS011;4201;48.754;8.864;2023-04-07T14:28:35;12.93;;;5.80;;
8327;SDS011;4201;48.754;8.864;2023-04-07T14:31:01;10.60;;;6.33;;
8327;SDS011;4201;48.754;8.864;2023-04-07T14:33:28;9.60;;;5.50;;
8327;SDS011;4201;48.754;8.864;2023-04-07T14:35:55;12.03;;;5.90;;
8327;SDS011;4201;48.754;8.864;2023-04-07T14:38:21;11.23;;;6.23;;
8327;SDS011;4201;48.754;8.864;2023-04-07T14:40:49;7.93;;;6.20;;
8327;SDS011;4201;48.754;8.864;2023-04-07T14:43:16;11.77;;;6.27;;
8327;SDS011;4201;48.754;8.864;2023-04-07T14:45:42;11.93;;;6.03;;
8327;SDS011;4201;48.754;8.864;2023-04-07T14:48:09;9.37;;;6.53;;
8327;SDS011;4201;48.754;8.864;2023-04-07T14:50:37;9.13;;;5.63;;
8327;SDS011;4201;48.754;8.864;2023-04-07T14:53:04;9.90;;;6.97;;
8327;SDS011;4201;48.754;8.864;2023-04-07T14:55:30;10.53;;;6.10;;
8327;SDS011;4201;48.754;8.864;2023-04-07T14:57:56;7.87;;;6.40;;
8327;SDS011;4201;48.754;8.864;2023-04-07T15:00:23;10.47;;;6.33;;
8327;SDS011;4201;48.754;8.864;2023-04-07T15:02:50;9.27;;;5.77;;
8327;SDS011;4201;48.754;8.864;2023-04-07T15:05:17;9.43;;;5.77;;
8327;SDS011;4201;48.754;8.864;2023-04-07T15:07:46;8.87;;;6.27;;
8327;SDS011;4201;48.754;8.864;2023-04-07T15:10:14;9.13;;;5.90;;
8327;SDS011;4201;48.754;8.864;2023-04-07T15:12:42;8.63;;;5.90;;
8327;SDS011;4201;48.754;8.864;2023-04-07T15:15:10;11.00;;;6.53;;
8327;SDS011;4201;48.754;8.864;2023-04-07T15:17:36;10.13;;;6.20;;